sensor_id;sensor_type;location;lat;lon;timestamp;pressure;altitude;pressure_sealevel;temperature;humidity
34586;BME280;20816;50.950;11.108;2023-05-25T00:00:09;99178.47;;;7.05;100.00
34586;BME280;20816;50.950;11.108;2023-05-25T00:02:37;99179.34;;;7.03;100.00
34586;BME280;20816;50.950;11.108;2023-05-25T00:05:07;99178.50;;;7.01;100.00
34586;BME280;20816;50.950;11.108;2023-05-25T00:07:34;99181.06;;;7.00;100.00
34586;BME280;20816;50.950;11.108;2023-05-25T00:10:02;99188.06;;;6.96;100.00
34586;BME280;20816;50.950;11.108;2023-05-25T00:12:28;99186.31;;;6.92;100.00
34586;BME280;20816;50.950;11.108;2023-05-25T00:14:55;99191.50;;;6.91;100.00
34586;BME280;20816;50.950;11.108;2023-05-25T00:17:22;99190.66;;;6.89;100.00
34586;BME280;20816;50.950;11.108;2023-05-25T00:19:50;99189.78;;;6.88;100.00
34586;BME280;20816;50.950;11.108;2023-05-25T00:22:17;99193.25;;;6.87;100.00
34586;BME280;20816;50.950;11.108;2023-05-25T00:24:43;99194.13;;;6.79;100.00
34586;BME280;20816;50.950;11.108;2023-05-25T00:27:10;99203.72;;;6.84;100.00
34586;BME280;20816;50.950;11.108;2023-05-25T00:29:37;99201.03;;;6.63;100.00
34586;BME280;20816;50.950;11.108;2023-05-25T00:32:04;99206.09;;;6.32;100.00
34586;BME280;20816;50.950;11.108;2023-05-25T00:34:30;99211.38;;;6.41;100.00
34586;BME280;20816;50.950;11.108;2023-05-25T00:36:57;99215.78;;;6.52;100.00
34586;BME280;20816;50.950;11.108;2023-05-25T00:39:24;99214.91;;;6.54;100.00
34586;BME280;20816;50.950;11.108;2023-05-25T00:41:50;99217.47;;;6.39;100.00
34586;BME280;20816;50.950;11.108;2023-05-25T00:44:17;99222.69;;;6.37;100.00
34586;BME280;20816;50.950;11.108;2023-05-25T00:46:49;99219.22;;;6.44;100.00
34586;BME280;20816;50.950;11.108;2023-05-25T00:49:18;99212.28;;;6.43;100.00
34586;BME280;20816;50.950;11.108;2023-05-25T00:51:46;99224.47;;;6.51;100.00
34586;BME280;20816;50.950;11.108;2023-05-25T00:54:17;99207.09;;;6.53;100.00
34586;BME280;20816;50.950;11.108;2023-05-25T00:56:52;99215.78;;;6.52;100.00
34586;BME280;20816;50.950;11.108;2023-05-25T01:02:02;99205.31;;;6.49;100.00
34586;BME280;20816;50.950;11.108;2023-05-25T01:04:39;99208.78;;;6.47;100.00
34586;BME280;20816;50.950;11.108;2023-05-25T01:07:07;99210.50;;;6.39;100.00
34586;BME280;20816;50.950;11.108;2023-05-25T01:09:38;99213.94;;;6.29;100.00
34586;BME280;20816;50.950;11.108;2023-05-25T01:12:07;99209.53;;;6.27;100.00
34586;BME280;20816;50.950;11.108;2023-05-25T01:14:36;99212.16;;;6.24;100.00
34586;BME280;20816;50.950;11.108;2023-05-25T01:17:03;99211.31;;;6.31;100.00
34586;BME280;20816;50.950;11.108;2023-05-25T01:19:32;99215.72;;;6.36;100.00
34586;BME280;20816;50.950;11.108;2023-05-25T01:24:52;99211.38;;;6.35;100.00
34586;BME280;20816;50.950;11.108;2023-05-25T01:27:25;99208.75;;;6.41;100.00
34586;BME280;20816;50.950;11.108;2023-05-25T01:29:57;99212.28;;;6.43;100.00
34586;BME280;20816;50.950;11.108;2023-05-25T01:32:25;99207.91;;;6.44;100.00
34586;BME280;20816;50.950;11.108;2023-05-25T01:34:54;99214.84;;;6.36;100.00
34586;BME280;20816;50.950;11.108;2023-05-25T01:37:21;99219.16;;;6.32;100.00
34586;BME280;20816;50.950;11.108;2023-05-25T01:39:52;99215.59;;;6.18;100.00
34586;BME280;20816;50.950;11.108;2023-05-25T01:42:19;99209.50;;;6.13;100.00
34586;BME280;20816;50.950;11.108;2023-05-25T01:44:47;99219.06;;;6.15;100.00
34586;BME280;20816;50.950;11.108;2023-05-25T01:47:19;99212.97;;;6.18;100.00
34586;BME280;20816;50.950;11.108;2023-05-25T01:50:08;99210.38;;;6.18;100.00
34586;BME280;20816;50.950;11.108;2023-05-25T01:52:50;99206.94;;;6.27;100.00
34586;BME280;20816;50.950;11.108;2023-05-25T01:55:22;99199.97;;;6.24;100.00
34586;BME280;20816;50.950;11.108;2023-05-25T01:57:54;99194.75;;;6.21;100.00
34586;BME280;20816;50.950;11.108;2023-05-25T02:00:27;99198.22;;;6.26;100.00
34586;BME280;20816;50.950;11.108;2023-05-25T02:02:57;99194.72;;;6.18;100.00
34586;BME280;20816;50.950;11.108;2023-05-25T02:05:25;99192.09;;;6.16;100.00
34586;BME280;20816;50.950;11.108;2023-05-25T02:07:53;99200.81;;;6.15;100.00
34586;BME280;20816;50.950;11.108;2023-05-25T02:10:19;99204.28;;;6.17;100.00
34586;BME280;20816;50.950;11.108;2023-05-25T02:12:46;99209.53;;;6.19;100.00
34586;BME280;20816;50.950;11.108;2023-05-25T02:15:14;99207.75;;;6.16;100.00
34586;BME280;20816;50.950;11.108;2023-05-25T02:17:41;99212.09;;;6.13;100.00
34586;BME280;20816;50.950;11.108;2023-05-25T02:20:10;99208.56;;;6.05;100.00
34586;BME280;20816;50.950;11.108;2023-05-25T02:22:37;99205.91;;;5.99;100.00
34586;BME280;20816;50.950;11.108;2023-05-25T02:25:04;99204.03;;;5.82;100.00
34586;BME280;20816;50.950;11.108;2023-05-25T02:27:32;99200.56;;;5.85;100.00
34586;BME280;20816;50.950;11.108;2023-05-25T02:29:58;99194.47;;;5.84;100.00
34586;BME280;20816;50.950;11.108;2023-05-25T02:32:25;99196.16;;;5.76;100.00
34586;BME280;20816;50.950;11.108;2023-05-25T02:34:54;99191.81;;;5.71;100.00
34586;BME280;20816;50.950;11.108;2023-05-25T02:37:21;99196.16;;;5.76;100.00
34586;BME280;20816;50.950;11.108;2023-05-25T02:39:48;99202.31;;;5.81;100.00
34586;BME280;20816;50.950;11.108;2023-05-25T02:42:15;99204.91;;;5.78;100.00
34586;BME280;20816;50.950;11.108;2023-05-25T02:44:41;99216.19;;;5.79;100.00
34586;BME280;20816;50.950;11.108;2023-05-25T02:47:17;99201.44;;;5.79;100.00
34586;BME280;20816;50.950;11.108;2023-05-25T02:49:44;99202.25;;;5.72;100.00
34586;BME280;20816;50.950;11.108;2023-05-25T02:52:11;99199.56;;;5.66;100.00
34586;BME280;20816;50.950;11.108;2023-05-25T02:54:38;99200.50;;;5.73;100.00
34586;BME280;20816;50.950;11.108;2023-05-25T02:57:05;99197.03;;;5.77;100.00
34586;BME280;20816;50.950;11.108;2023-05-25T02:59:32;99203.13;;;5.77;100.00
34586;BME280;20816;50.950;11.108;2023-05-25T03:01:58;99209.25;;;5.79;100.00
34586;BME280;20816;50.950;11.108;2023-05-25T03:04:25;99210.13;;;5.78;100.00
34586;BME280;20816;50.950;11.108;2023-05-25T03:06:52;99200.50;;;5.77;100.00
34586;BME280;20816;50.950;11.108;2023-05-25T03:09:19;99203.16;;;5.80;100.00
34586;BME280;20816;50.950;11.108;2023-05-25T03:11:46;99207.47;;;5.77;100.00
34586;BME280;20816;50.950;11.108;2023-05-25T03:14:13;99201.44;;;5.82;100.00
34586;BME280;20816;50.950;11.108;2023-05-25T03:16:39;99201.44;;;5.82;100.00
34586;BME280;20816;50.950;11.108;2023-05-25T03:19:06;99211.88;;;5.84;100.00
34586;BME280;20816;50.950;11.108;2023-05-25T03:21:34;99210.13;;;5.81;100.00
34586;BME280;20816;50.950;11.108;2023-05-25T03:24:00;99211.81;;;5.76;100.00
34586;BME280;20816;50.950;11.108;2023-05-25T03:26:27;99211.00;;;5.85;100.00
34586;BME280;20816;50.950;11.108;2023-05-25T03:28:54;99211.00;;;5.79;100.00
34586;BME280;20816;50.950;11.108;2023-05-25T03:31:22;99211.91;;;5.88;100.00
34586;BME280;20816;50.950;11.108;2023-05-25T03:33:48;99214.53;;;5.87;100.00
34586;BME280;20816;50.950;11.108;2023-05-25T03:36:15;99217.94;;;5.78;100.00
34586;BME280;20816;50.950;11.108;2023-05-25T03:38:43;99217.09;;;5.82;100.00
34586;BME280;20816;50.950;11.108;2023-05-25T03:41:09;99218.91;;;5.93;100.00
34586;BME280;20816;50.950;11.108;2023-05-25T03:43:36;99229.31;;;5.86;100.00
34586;BME280;20816;50.950;11.108;2023-05-25T03:46:03;99228.41;;;5.84;100.00
34586;BME280;20816;50.950;11.108;2023-05-25T03:48:29;99234.44;;;5.77;100.00
34586;BME280;20816;50.950;11.108;2023-05-25T03:50:56;99235.28;;;5.78;100.00
34586;BME280;20816;50.950;11.108;2023-05-25T03:53:23;99237.94;;;5.79;100.00
34586;BME280;20816;50.950;11.108;2023-05-25T03:55:49;99233.59;;;5.78;100.00
34586;BME280;20816;50.950;11.108;2023-05-25T03:58:17;99231.88;;;5.83;100.00
34586;BME280;20816;50.950;11.108;2023-05-25T04:00:44;99228.44;;;5.89;100.00
34586;BME280;20816;50.950;11.108;2023-05-25T04:03:11;99236.22;;;5.84;100.00
34586;BME280;20816;50.950;11.108;2023-05-25T04:05:38;99234.53;;;5.89;100.00
34586;BME280;20816;50.950;11.108;2023-05-25T04:08:04;99248.47;;;5.92;100.00
34586;BME280;20816;50.950;11.108;2023-05-25T04:10:32;99249.34;;;5.92;100.00
34586;BME280;20816;50.950;11.108;2023-05-25T04:12:58;99256.38;;;6.02;100.00
34586;BME280;20816;50.950;11.108;2023-05-25T04:15:25;99256.44;;;6.10;100.00
34586;BME280;20816;50.950;11.108;2023-05-25T04:17:52;99261.69;;;6.17;100.00
34586;BME280;20816;50.950;11.108;2023-05-25T04:20:20;99260.94;;;6.29;100.00
34586;BME280;20816;50.950;11.108;2023-05-25T04:22:47;99254.00;;;6.40;100.00
34586;BME280;20816;50.950;11.108;2023-05-25T04:25:13;99261.06;;;6.57;100.00
34586;BME280;20816;50.950;11.108;2023-05-25T04:27:40;99255.91;;;6.72;100.00
34586;BME280;20816;50.950;11.108;2023-05-25T04:30:07;99264.69;;;6.86;100.00
34586;BME280;20816;50.950;11.108;2023-05-25T04:32:36;99271.69;;;6.99;100.00
34586;BME280;20816;50.950;11.108;2023-05-25T04:35:04;99270.00;;;7.11;100.00
34586;BME280;20816;50.950;11.108;2023-05-25T04:37:31;99274.38;;;7.19;100.00
34586;BME280;20816;50.950;11.108;2023-05-25T04:39:58;99277.03;;;7.33;100.00
34586;BME280;20816;50.950;11.108;2023-05-25T04:42:25;99270.06;;;7.53;100.00
34586;BME280;20816;50.950;11.108;2023-05-25T04:44:52;99279.69;;;7.68;100.00
34586;BME280;20816;50.950;11.108;2023-05-25T04:47:21;99274.44;;;7.85;100.00
34586;BME280;20816;50.950;11.108;2023-05-25T04:49:50;99277.94;;;8.02;100.00
34586;BME280;20816;50.950;11.108;2023-05-25T04:52:17;99278.78;;;8.17;100.00
34586;BME280;20816;50.950;11.108;2023-05-25T04:54:44;99285.75;;;8.36;100.00
34586;BME280;20816;50.950;11.108;2023-05-25T04:57:12;99283.97;;;8.53;100.00
34586;BME280;20816;50.950;11.108;2023-05-25T04:59:38;99282.22;;;8.64;100.00
34586;BME280;20816;50.950;11.108;2023-05-25T05:02:05;99283.94;;;8.68;100.00
34586;BME280;20816;50.950;11.108;2023-05-25T05:04:32;99283.91;;;8.78;100.00
34586;BME280;20816;50.950;11.108;2023-05-25T05:06:58;99284.78;;;8.83;100.00
34586;BME280;20816;50.950;11.108;2023-05-25T05:09:26;99284.72;;;8.92;100.00
34586;BME280;20816;50.950;11.108;2023-05-25T05:11:52;99284.69;;;9.01;100.00
34586;BME280;20816;50.950;11.108;2023-05-25T05:14:19;99281.16;;;9.13;100.00
34586;BME280;20816;50.950;11.108;2023-05-25T05:16:46;99292.44;;;9.25;100.00
34586;BME280;20816;50.950;11.108;2023-05-25T05:19:13;99285.38;;;9.37;100.00
34586;BME280;20816;50.950;11.108;2023-05-25T05:21:40;99283.59;;;9.42;100.00
34586;BME280;20816;50.950;11.108;2023-05-25T05:24:07;99288.75;;;9.55;100.00
34586;BME280;20816;50.950;11.108;2023-05-25T05:26:33;99289.59;;;9.62;100.00
34586;BME280;20816;50.950;11.108;2023-05-25T05:29:20;99298.25;;;9.75;100.00
34586;BME280;20816;50.950;11.108;2023-05-25T05:31:46;99299.03;;;9.84;100.00
34586;BME280;20816;50.950;11.108;2023-05-25T05:34:13;99294.59;;;9.94;100.00
34586;BME280;20816;50.950;11.108;2023-05-25T05:36:40;99301.59;;;9.95;100.00
34586;BME280;20816;50.950;11.108;2023-05-25T05:39:23;99305.94;;;9.98;100.00
34586;BME280;20816;50.950;11.108;2023-05-25T05:41:49;99312.94;;;9.99;100.00
34586;BME280;20816;50.950;11.108;2023-05-25T05:44:17;99308.53;;;10.01;100.00
34586;BME280;20816;50.950;11.108;2023-05-25T05:46:43;99316.34;;;10.08;100.00
34586;BME280;20816;50.950;11.108;2023-05-25T05:49:10;99316.41;;;10.04;100.00
34586;BME280;20816;50.950;11.108;2023-05-25T05:51:37;99318.13;;;10.08;100.00
34586;BME280;20816;50.950;11.108;2023-05-25T05:54:04;99314.50;;;10.21;100.00
34586;BME280;20816;50.950;11.108;2023-05-25T05:56:31;99320.59;;;10.29;100.00
34586;BME280;20816;50.950;11.108;2023-05-25T05:58:58;99324.13;;;10.28;100.00
34586;BME280;20816;50.950;11.108;2023-05-25T06:01:24;99325.78;;;10.34;100.00
34586;BME280;20816;50.950;11.108;2023-05-25T06:03:51;99331.94;;;10.33;100.00
34586;BME280;20816;50.950;11.108;2023-05-25T06:06:19;99333.66;;;10.38;100.00
34586;BME280;20816;50.950;11.108;2023-05-25T06:08:47;99330.91;;;10.52;100.00
34586;BME280;20816;50.950;11.108;2023-05-25T06:11:13;99329.13;;;10.53;100.00
34586;BME280;20816;50.950;11.108;2023-05-25T06:13:40;99336.94;;;10.62;100.00
34586;BME280;20816;50.950;11.108;2023-05-25T06:16:07;99332.44;;;10.72;100.00
34586;BME280;20816;50.950;11.108;2023-05-25T06:18:34;99324.47;;;10.79;100.00
34586;BME280;20816;50.950;11.108;2023-05-25T06:21:01;99331.34;;;10.89;100.00
34586;BME280;20816;50.950;11.108;2023-05-25T06:23:27;99327.66;;;11.06;100.00
34586;BME280;20816;50.950;11.108;2023-05-25T06:25:54;99329.38;;;11.10;100.00
34586;BME280;20816;50.950;11.108;2023-05-25T06:28:21;99330.09;;;11.24;100.00
34586;BME280;20816;50.950;11.108;2023-05-25T06:30:48;99332.50;;;11.39;100.00
34586;BME280;20816;50.950;11.108;2023-05-25T06:33:14;99342.81;;;11.55;100.00
34586;BME280;20816;50.950;11.108;2023-05-25T06:35:41;99333.03;;;11.66;100.00
34586;BME280;20816;50.950;11.108;2023-05-25T06:38:08;99330.31;;;11.70;100.00
34586;BME280;20816;50.950;11.108;2023-05-25T06:40:36;99326.66;;;11.79;100.00
34586;BME280;20816;50.950;11.108;2023-05-25T06:43:03;99321.16;;;11.97;100.00
34586;BME280;20816;50.950;11.108;2023-05-25T06:45:30;99324.34;;;12.18;100.00
34586;BME280;20816;50.950;11.108;2023-05-25T06:47:57;99328.50;;;12.29;100.00
34586;BME280;20816;50.950;11.108;2023-05-25T06:50:23;99325.63;;;12.46;100.00
34586;BME280;20816;50.950;11.108;2023-05-25T06:52:50;99316.41;;;12.69;99.26
34586;BME280;20816;50.950;11.108;2023-05-25T06:55:17;99321.34;;;12.87;96.94
34586;BME280;20816;50.950;11.108;2023-05-25T06:57:44;99320.22;;;12.99;96.37
34586;BME280;20816;50.950;11.108;2023-05-25T07:00:11;99327.97;;;13.06;95.36
34586;BME280;20816;50.950;11.108;2023-05-25T07:02:38;99327.38;;;13.37;93.59
34586;BME280;20816;50.950;11.108;2023-05-25T07:05:05;99326.97;;;13.55;92.66
34586;BME280;20816;50.950;11.108;2023-05-25T07:07:32;99323.81;;;13.78;91.43
34586;BME280;20816;50.950;11.108;2023-05-25T07:10:01;99317.88;;;14.40;89.86
34586;BME280;20816;50.950;11.108;2023-05-25T07:12:28;99312.88;;;14.96;85.30
34586;BME280;20816;50.950;11.108;2023-05-25T07:14:56;99326.66;;;15.08;84.20
34586;BME280;20816;50.950;11.108;2023-05-25T07:17:23;99320.69;;;14.69;84.30
34586;BME280;20816;50.950;11.108;2023-05-25T07:19:49;99330.16;;;14.78;85.13
34586;BME280;20816;50.950;11.108;2023-05-25T07:22:18;99325.56;;;14.52;85.71
34586;BME280;20816;50.950;11.108;2023-05-25T07:24:45;99338.75;;;14.16;87.02
34586;BME280;20816;50.950;11.108;2023-05-25T07:27:15;99328.78;;;14.27;86.41
34586;BME280;20816;50.950;11.108;2023-05-25T07:29:42;99326.72;;;14.39;87.28
34586;BME280;20816;50.950;11.108;2023-05-25T07:32:08;99330.25;;;15.06;85.88
34586;BME280;20816;50.950;11.108;2023-05-25T07:34:35;99324.88;;;15.38;82.26
34586;BME280;20816;50.950;11.108;2023-05-25T07:37:02;99330.84;;;14.84;84.91
34586;BME280;20816;50.950;11.108;2023-05-25T07:39:29;99326.59;;;15.10;84.50
34586;BME280;20816;50.950;11.108;2023-05-25T07:41:55;99325.72;;;14.78;86.28
34586;BME280;20816;50.950;11.108;2023-05-25T07:44:22;99321.59;;;14.68;86.12
34586;BME280;20816;50.950;11.108;2023-05-25T07:46:49;99323.72;;;14.86;84.37
34586;BME280;20816;50.950;11.108;2023-05-25T07:49:16;99331.03;;;15.70;82.36
34586;BME280;20816;50.950;11.108;2023-05-25T07:51:44;99328.66;;;16.17;79.45
34586;BME280;20816;50.950;11.108;2023-05-25T07:54:11;99338.16;;;16.24;78.71
34586;BME280;20816;50.950;11.108;2023-05-25T07:56:38;99340.63;;;16.02;79.95
34586;BME280;20816;50.950;11.108;2023-05-25T07:59:05;99344.84;;;15.81;80.77
34586;BME280;20816;50.950;11.108;2023-05-25T08:01:31;99343.19;;;15.77;80.22
34586;BME280;20816;50.950;11.108;2023-05-25T08:03:58;99342.38;;;15.75;81.65
34586;BME280;20816;50.950;11.108;2023-05-25T08:06:25;99345.19;;;15.69;80.23
34586;BME280;20816;50.950;11.108;2023-05-25T08:08:52;99345.97;;;16.01;79.05
34586;BME280;20816;50.950;11.108;2023-05-25T08:11:22;99337.59;;;15.86;79.22
34586;BME280;20816;50.950;11.108;2023-05-25T08:13:50;99341.88;;;15.90;79.77
34586;BME280;20816;50.950;11.108;2023-05-25T08:16:17;99345.88;;;16.04;80.75
34586;BME280;20816;50.950;11.108;2023-05-25T08:18:44;99340.56;;;16.83;76.03
34586;BME280;20816;50.950;11.108;2023-05-25T08:21:12;99341.81;;;16.73;76.52
34586;BME280;20816;50.950;11.108;2023-05-25T08:23:39;99338.59;;;16.63;76.35
34586;BME280;20816;50.950;11.108;2023-05-25T08:26:11;99350.78;;;16.16;77.37
34586;BME280;20816;50.950;11.108;2023-05-25T08:28:40;99353.16;;;16.78;76.10
34586;BME280;20816;50.950;11.108;2023-05-25T08:31:07;99360.28;;;16.76;76.47
34586;BME280;20816;50.950;11.108;2023-05-25T08:33:34;99360.47;;;17.45;74.10
34586;BME280;20816;50.950;11.108;2023-05-25T08:36:01;99359.59;;;17.21;74.12
34586;BME280;20816;50.950;11.108;2023-05-25T08:38:27;99359.66;;;16.94;74.65
34586;BME280;20816;50.950;11.108;2023-05-25T08:41:05;99362.59;;;17.12;75.85
34586;BME280;20816;50.950;11.108;2023-05-25T08:43:32;99351.56;;;17.46;72.96
34586;BME280;20816;50.950;11.108;2023-05-25T08:46:04;99344.59;;;16.95;74.94
34586;BME280;20816;50.950;11.108;2023-05-25T08:48:33;99368.38;;;17.46;75.16
34586;BME280;20816;50.950;11.108;2023-05-25T08:51:09;99362.69;;;17.80;71.71
34586;BME280;20816;50.950;11.108;2023-05-25T08:53:38;99365.50;;;17.29;72.81
34586;BME280;20816;50.950;11.108;2023-05-25T08:56:09;99370.25;;;17.44;71.70
34586;BME280;20816;50.950;11.108;2023-05-25T08:58:56;99360.50;;;18.56;69.04
34586;BME280;20816;50.950;11.108;2023-05-25T09:01:27;99365.38;;;19.48;67.34
34586;BME280;20816;50.950;11.108;2023-05-25T09:03:58;99365.53;;;19.04;67.02
34586;BME280;20816;50.950;11.108;2023-05-25T09:06:26;99365.28;;;18.69;68.56
34586;BME280;20816;50.950;11.108;2023-05-25T09:08:53;99359.69;;;18.75;68.70
34586;BME280;20816;50.950;11.108;2023-05-25T09:11:21;99365.84;;;19.57;68.05
34586;BME280;20816;50.950;11.108;2023-05-25T09:14:06;99364.41;;;19.88;65.83
34586;BME280;20816;50.950;11.108;2023-05-25T09:16:33;99371.44;;;20.08;65.21
34586;BME280;20816;50.950;11.108;2023-05-25T09:19:00;99371.16;;;18.98;66.96
34586;BME280;20816;50.950;11.108;2023-05-25T09:21:27;99374.00;;;17.14;71.90
34586;BME280;20816;50.950;11.108;2023-05-25T09:23:54;99382.13;;;17.34;71.73
34586;BME280;20816;50.950;11.108;2023-05-25T09:26:21;99372.81;;;16.46;74.46
34586;BME280;20816;50.950;11.108;2023-05-25T09:28:48;99372.56;;;17.05;73.43
34586;BME280;20816;50.950;11.108;2023-05-25T09:31:14;99363.06;;;18.37;70.87
34586;BME280;20816;50.950;11.108;2023-05-25T09:33:42;99363.38;;;19.32;67.82
34586;BME280;20816;50.950;11.108;2023-05-25T09:36:11;99370.25;;;18.35;68.48
34586;BME280;20816;50.950;11.108;2023-05-25T09:38:39;99358.63;;;19.00;68.29
34586;BME280;20816;50.950;11.108;2023-05-25T09:41:06;99367.63;;;19.95;65.10
34586;BME280;20816;50.950;11.108;2023-05-25T09:43:32;99365.84;;;19.57;64.57
34586;BME280;20816;50.950;11.108;2023-05-25T09:46:10;99367.81;;;19.52;64.66
34586;BME280;20816;50.950;11.108;2023-05-25T09:48:37;99363.81;;;19.23;64.90
34586;BME280;20816;50.950;11.108;2023-05-25T09:51:05;99370.78;;;19.26;65.34
34586;BME280;20816;50.950;11.108;2023-05-25T09:53:33;99371.78;;;20.19;63.25
34586;BME280;20816;50.950;11.108;2023-05-25T09:55:59;99373.63;;;20.89;61.08
34586;BME280;20816;50.950;11.108;2023-05-25T09:58:29;99368.47;;;22.64;57.46
34586;BME280;20816;50.950;11.108;2023-05-25T10:00:56;99373.31;;;23.18;56.08
34586;BME280;20816;50.950;11.108;2023-05-25T10:03:23;99379.78;;;21.59;55.55
34586;BME280;20816;50.950;11.108;2023-05-25T10:05:50;99369.72;;;22.27;55.32
34586;BME280;20816;50.950;11.108;2023-05-25T10:08:19;99369.47;;;22.32;55.42
34586;BME280;20816;50.950;11.108;2023-05-25T10:10:47;99373.84;;;20.85;58.05
34586;BME280;20816;50.950;11.108;2023-05-25T10:13:19;99369.31;;;20.69;58.24
34586;BME280;20816;50.950;11.108;2023-05-25T10:15:51;99369.50;;;21.17;58.55
34586;BME280;20816;50.950;11.108;2023-05-25T10:18:23;99361.84;;;21.93;56.84
34586;BME280;20816;50.950;11.108;2023-05-25T10:21:00;99349.91;;;22.46;55.13
34586;BME280;20816;50.950;11.108;2023-05-25T10:23:37;99347.72;;;23.12;54.47
34586;BME280;20816;50.950;11.108;2023-05-25T10:26:07;99357.66;;;22.96;55.31
34586;BME280;20816;50.950;11.108;2023-05-25T10:28:36;99364.56;;;21.26;56.68
34586;BME280;20816;50.950;11.108;2023-05-25T10:31:04;99362.97;;;20.17;60.20
34586;BME280;20816;50.950;11.108;2023-05-25T10:33:31;99362.38;;;19.74;61.26
34586;BME280;20816;50.950;11.108;2023-05-25T10:36:02;99349.38;;;19.85;60.40
34586;BME280;20816;50.950;11.108;2023-05-25T10:38:38;99355.00;;;20.70;58.53
34586;BME280;20816;50.950;11.108;2023-05-25T10:41:07;99358.75;;;21.36;57.23
34586;BME280;20816;50.950;11.108;2023-05-25T10:43:34;99351.66;;;22.15;55.52
34586;BME280;20816;50.950;11.108;2023-05-25T10:46:02;99349.09;;;22.59;53.56
34586;BME280;20816;50.950;11.108;2023-05-25T10:48:38;99341.00;;;22.45;54.04
34586;BME280;20816;50.950;11.108;2023-05-25T10:51:05;99338.19;;;22.32;52.13
34586;BME280;20816;50.950;11.108;2023-05-25T10:53:35;99339.88;;;23.24;51.05
34586;BME280;20816;50.950;11.108;2023-05-25T10:56:06;99348.19;;;22.75;52.36
34586;BME280;20816;50.950;11.108;2023-05-25T10:58:34;99345.13;;;23.11;52.31
34586;BME280;20816;50.950;11.108;2023-05-25T11:01:11;99343.50;;;23.37;51.54
34586;BME280;20816;50.950;11.108;2023-05-25T11:09:06;99326.94;;;23.87;51.97
34586;BME280;20816;50.950;11.108;2023-05-25T11:14:38;99333.63;;;21.38;55.87
34586;BME280;20816;50.950;11.108;2023-05-25T11:24:50;99322.25;;;23.48;51.30
34586;BME280;20816;50.950;11.108;2023-05-25T11:27:24;99320.53;;;23.18;50.16
34586;BME280;20816;50.950;11.108;2023-05-25T11:29:53;99324.34;;;23.43;49.79
34586;BME280;20816;50.950;11.108;2023-05-25T11:32:20;99319.19;;;23.40;50.15
34586;BME280;20816;50.950;11.108;2023-05-25T11:34:50;99327.47;;;23.92;50.29
34586;BME280;20816;50.950;11.108;2023-05-25T11:37:19;99320.63;;;23.74;50.17
34586;BME280;20816;50.950;11.108;2023-05-25T11:39:47;99315.72;;;23.81;50.43
34586;BME280;20816;50.950;11.108;2023-05-25T11:42:16;99327.03;;;23.57;50.66
34586;BME280;20816;50.950;11.108;2023-05-25T11:44:42;99313.81;;;23.68;49.45
34586;BME280;20816;50.950;11.108;2023-05-25T11:47:11;99307.59;;;24.88;48.79
34586;BME280;20816;50.950;11.108;2023-05-25T11:49:45;99302.84;;;24.79;48.54
34586;BME280;20816;50.950;11.108;2023-05-25T11:52:16;99298.06;;;25.10;47.19
34586;BME280;20816;50.950;11.108;2023-05-25T11:54:43;99300.41;;;24.37;49.33
34586;BME280;20816;50.950;11.108;2023-05-25T11:57:36;99304.22;;;22.93;52.45
34586;BME280;20816;50.950;11.108;2023-05-25T12:00:05;99308.69;;;21.05;56.88
34586;BME280;20816;50.950;11.108;2023-05-25T12:02:39;99304.34;;;21.84;55.24
34586;BME280;20816;50.950;11.108;2023-05-25T12:05:07;99305.66;;;22.08;54.83
34586;BME280;20816;50.950;11.108;2023-05-25T12:07:44;99297.44;;;22.72;52.81
34586;BME280;20816;50.950;11.108;2023-05-25T12:10:16;99294.47;;;23.35;51.41
34586;BME280;20816;50.950;11.108;2023-05-25T12:12:48;99300.09;;;21.96;53.17
34586;BME280;20816;50.950;11.108;2023-05-25T12:15:19;99288.56;;;22.41;52.97
34586;BME280;20816;50.950;11.108;2023-05-25T12:17:47;99286.59;;;23.17;51.91
34586;BME280;20816;50.950;11.108;2023-05-25T12:20:15;99283.34;;;23.41;52.39
34586;BME280;20816;50.950;11.108;2023-05-25T12:22:44;99283.13;;;23.44;50.77
34586;BME280;20816;50.950;11.108;2023-05-25T12:25:12;99282.78;;;23.21;51.54
34586;BME280;20816;50.950;11.108;2023-05-25T12:27:39;99288.00;;;22.20;53.26
34586;BME280;20816;50.950;11.108;2023-05-25T12:30:08;99285.94;;;22.70;51.83
34586;BME280;20816;50.950;11.108;2023-05-25T12:32:59;99282.31;;;22.71;51.29
34586;BME280;20816;50.950;11.108;2023-05-25T12:35:42;99284.59;;;23.07;51.71
34586;BME280;20816;50.950;11.108;2023-05-25T12:38:16;99275.06;;;23.58;50.70
34586;BME280;20816;50.950;11.108;2023-05-25T12:40:44;99278.94;;;23.26;51.13
34586;BME280;20816;50.950;11.108;2023-05-25T12:43:11;99274.31;;;23.42;51.66
34586;BME280;20816;50.950;11.108;2023-05-25T12:45:41;99264.66;;;23.95;50.35
34586;BME280;20816;50.950;11.108;2023-05-25T12:48:09;99273.00;;;23.35;51.67
34586;BME280;20816;50.950;11.108;2023-05-25T12:50:36;99271.28;;;22.61;52.22
34586;BME280;20816;50.950;11.108;2023-05-25T12:53:03;99266.94;;;21.82;53.81
34586;BME280;20816;50.950;11.108;2023-05-25T12:55:32;99278.88;;;22.08;54.60
34586;BME280;20816;50.950;11.108;2023-05-25T12:58:01;99272.78;;;22.81;54.15
34586;BME280;20816;50.950;11.108;2023-05-25T13:00:34;99275.09;;;22.87;54.49
34586;BME280;20816;50.950;11.108;2023-05-25T13:03:03;99275.34;;;21.61;55.74
34586;BME280;20816;50.950;11.108;2023-05-25T13:05:31;99282.91;;;21.04;57.24
34586;BME280;20816;50.950;11.108;2023-05-25T13:08:00;99282.91;;;21.04;58.10
34586;BME280;20816;50.950;11.108;2023-05-25T13:10:31;99269.03;;;21.93;56.22
34586;BME280;20816;50.950;11.108;2023-05-25T13:12:59;99264.34;;;21.65;55.59
34586;BME280;20816;50.950;11.108;2023-05-25T13:15:26;99271.53;;;21.16;57.10
34586;BME280;20816;50.950;11.108;2023-05-25T13:17:54;99276.56;;;21.22;58.12